Time;durP1;ratioP1;P1;durP2;ratioP2;P2;SDS_P1;SDS_P2;PMS_P1;PMS_P2;Temp;Humidity;BMP_temperature;BMP_pressure;BME280_temperature;BME280_humidity;BME280_pressure;Samples;Min_cycle;Max_cycle;Signal;HPM_P1;HPM_P2
2022/10/07 00:01:16;;;;;;;3.83;0.60;;;;;;;10.50;63.33;98406.19;4919358;28;20188;-78
2022/10/07 00:03:41;;;;;;;3.03;0.52;;;;;;;10.45;63.48;98400.84;4948835;28;20260;-78
2022/10/07 00:06:12;;;;;;;1.67;0.47;;;;;;;10.40;63.09;98404.09;4947031;28;20282;-78
2022/10/07 00:08:39;;;;;;;2.30;0.73;;;;;;;10.45;63.82;98408.66;4930092;28;20197;-78
2022/10/07 00:11:09;;;;;;;4.20;1.50;;;;;;;10.39;64.00;98402.50;4946809;28;20653;-78
2022/10/07 00:13:37;;;;;;;2.33;0.40;;;;;;;10.46;63.70;98405.03;4947725;28;20270;-78
2022/10/07 00:16:18;;;;;;;2.92;0.45;;;;;;;10.34;63.88;98404.16;4947305;28;20254;-77
2022/10/07 00:18:44;;;;;;;5.78;0.60;;;;;;;10.47;63.78;98404.03;4947729;28;20257;-78
2022/10/07 00:21:12;;;;;;;0.73;0.30;;;;;;;10.49;63.47;98404.63;4931473;28;20206;-78
2022/10/07 00:23:40;;;;;;;4.78;0.70;;;;;;;10.45;63.96;98393.03;4947278;28;20169;-78
2022/10/07 00:26:07;;;;;;;2.90;0.70;;;;;;;10.46;64.78;98384.22;4931682;28;20716;-78
2022/10/07 00:28:33;;;;;;;3.83;0.85;;;;;;;10.51;64.37;98394.78;4948000;28;20650;-78
2022/10/07 00:31:00;;;;;;;2.15;0.40;;;;;;;10.48;64.23;98390.00;4947411;28;20177;-78
2022/10/07 00:33:28;;;;;;;2.47;0.60;;;;;;;10.45;64.33;98378.22;4947367;28;20204;-78
2022/10/07 00:35:54;;;;;;;3.58;0.65;;;;;;;10.46;64.57;98384.22;4947510;28;20187;-78
2022/10/07 00:38:19;;;;;;;3.53;0.70;;;;;;;10.50;63.80;98374.94;4947035;28;20211;-78
2022/10/07 00:40:45;;;;;;;1.23;0.45;;;;;;;10.49;64.37;98379.38;4930556;28;20292;-78
2022/10/07 00:43:18;;;;;;;3.50;0.50;;;;;;;10.40;64.52;98374.63;4947045;28;20362;-78
2022/10/07 00:45:43;;;;;;;3.03;0.55;;;;;;;10.53;64.47;98365.94;4946138;28;20333;-78
2022/10/07 00:48:10;;;;;;;2.53;0.63;;;;;;;10.50;64.57;98364.53;4914591;28;20397;-78
2022/10/07 00:50:36;;;;;;;1.95;0.90;;;;;;;10.49;64.72;98363.75;4946100;28;20413;-78
2022/10/07 00:53:01;;;;;;;3.75;0.73;;;;;;;10.49;64.66;98363.75;4927691;28;20342;-78
2022/10/07 00:55:29;;;;;;;4.00;0.82;;;;;;;10.41;64.86;98361.41;4947380;28;20218;-78
2022/10/07 00:57:58;;;;;;;2.50;0.60;;;;;;;10.43;64.78;98356.00;4928160;28;20314;-78
2022/10/07 01:00:23;;;;;;;2.83;0.80;;;;;;;10.52;64.38;98352.13;4942135;28;20196;-78
2022/10/07 01:02:50;;;;;;;4.35;0.57;;;;;;;10.51;64.48;98349.72;4942647;28;20653;-78
2022/10/07 01:05:16;;;;;;;2.05;0.52;;;;;;;10.50;64.50;98343.72;4940820;28;20642;-78
2022/10/07 01:07:42;;;;;;;1.02;0.45;;;;;;;10.48;64.45;98345.72;4929543;28;20286;-78
2022/10/07 01:10:10;;;;;;;3.30;0.40;;;;;;;10.44;64.56;98341.97;4946796;28;20685;-78
2022/10/07 01:12:43;;;;;;;3.20;0.50;;;;;;;10.48;65.14;98336.09;4913913;28;20284;-78
2022/10/07 01:15:30;;;;;;;5.18;0.47;;;;;;;10.24;65.02;98340.28;4928619;28;20286;-78
2022/10/07 01:18:07;;;;;;;1.45;0.40;;;;;;;10.42;64.68;98336.19;4913311;28;20738;-78
2022/10/07 01:21:05;;;;;;;4.13;0.70;;;;;;;10.37;65.07;98333.44;4926353;28;20209;-78
2022/10/07 01:23:39;;;;;;;2.33;0.30;;;;;;;10.39;65.04;98331.41;4942464;28;20306;-78
2022/10/07 01:26:10;;;;;;;2.83;0.55;;;;;;;10.51;64.82;98318.47;4946696;28;20285;-78
2022/10/07 01:28:43;;;;;;;2.42;0.60;;;;;;;10.37;64.72;98315.22;4946524;28;20215;-78
2022/10/07 01:31:11;;;;;;;2.55;0.70;;;;;;;10.39;64.62;98305.38;4929625;28;20259;-78
2022/10/07 01:33:37;;;;;;;1.85;0.38;;;;;;;10.43;64.48;98303.91;4912408;28;20255;-78
2022/10/07 01:36:07;;;;;;;1.35;0.30;;;;;;;10.32;64.18;98304.66;4944495;28;20189;-78
2022/10/07 01:38:33;;;;;;;1.85;0.50;;;;;;;10.36;64.04;98300.59;4945048;28;20196;-78
2022/10/07 01:41:07;;;;;;;4.43;0.32;;;;;;;10.25;63.84;98305.47;4929623;28;20299;-78
2022/10/07 01:43:32;;;;;;;4.50;0.73;;;;;;;10.27;64.17;98298.22;4930093;28;20223;-78
2022/10/07 01:45:58;;;;;;;3.83;0.63;;;;;;;10.22;63.85;98299.88;4945667;28;20220;-78
2022/10/07 01:48:23;;;;;;;2.78;0.50;;;;;;;10.20;63.92;98292.28;4945613;28;20314;-78
2022/10/07 01:50:50;;;;;;;4.15;0.60;;;;;;;10.13;64.51;98286.34;4945368;28;20396;-78
2022/10/07 01:53:27;;;;;;;2.13;0.38;;;;;;;10.11;64.39;98288.38;4913439;28;20100;-78
2022/10/07 01:56:11;;;;;;;3.75;0.38;;;;;;;10.03;64.51;98286.81;4913452;28;20164;-78
2022/10/07 01:59:05;;;;;;;3.53;1.15;;;;;;;10.01;64.41;98294.06;4945248;28;20173;-78
2022/10/07 02:01:43;;;;;;;2.60;0.55;;;;;;;9.98;65.23;98294.47;4945224;28;20630;-78
2022/10/07 02:04:32;;;;;;;1.73;0.45;;;;;;;9.94;65.29;98288.91;4948271;28;20165;-77
2022/10/07 02:07:09;;;;;;;3.13;0.68;;;;;;;9.99;64.92;98284.84;4928591;28;20252;-78
2022/10/07 02:09:40;;;;;;;3.55;0.88;;;;;;;10.07;64.43;98284.59;4944807;28;20241;-78
2022/10/07 02:12:20;;;;;;;1.48;0.60;;;;;;;10.03;65.18;98281.63;4929225;28;20188;-78
2022/10/07 02:14:52;;;;;;;2.63;0.40;;;;;;;10.11;65.47;98276.16;4946886;28;20259;-78
2022/10/07 02:17:19;;;;;;;1.73;0.60;;;;;;;10.27;66.19;98276.63;4926130;28;20271;-78
2022/10/07 02:19:47;;;;;;;4.20;0.50;;;;;;;10.30;65.66;98279.59;4915851;28;20584;-78
2022/10/07 02:22:15;;;;;;;4.75;0.40;;;;;;;10.33;65.47;98267.97;4945044;28;20604;-77
2022/10/07 02:24:41;;;;;;;4.47;0.52;;;;;;;10.37;65.76;98270.97;4918492;28;20247;-78
2022/10/07 02:27:10;;;;;;;4.47;1.00;;;;;;;10.34;65.69;98268.78;4925577;28;20198;-78
2022/10/07 02:29:37;;;;;;;4.70;0.80;;;;;;;10.41;65.53;98267.69;4944661;28;20380;-77
2022/10/07 02:32:05;;;;;;;2.75;0.95;;;;;;;10.38;66.10;98262.13;4945368;28;20172;-78
2022/10/07 02:34:31;;;;;;;3.13;0.60;;;;;;;10.41;66.04;98259.88;4928787;28;20200;-78
2022/10/07 02:37:01;;;;;;;0.90;0.47;;;;;;;10.37;66.11;98256.13;4945333;28;20587;-78
2022/10/07 02:39:27;;;;;;;1.98;0.60;;;;;;;10.47;65.40;98255.63;4926312;28;20146;-78
2022/10/07 02:42:15;;;;;;;3.67;1.05;;;;;;;10.28;66.56;98250.38;4945045;28;20180;-78
2022/10/07 02:44:48;;;;;;;2.47;0.75;;;;;;;10.37;66.74;98255.34;4944206;28;20247;-78
2022/10/07 02:47:41;;;;;;;1.73;0.40;;;;;;;10.43;65.47;98255.25;4944846;28;20642;-78
2022/10/07 02:50:12;;;;;;;2.35;0.47;;;;;;;10.33;64.28;98247.13;4945616;28;20220;-78
2022/10/07 02:52:38;;;;;;;3.95;0.80;;;;;;;10.37;65.22;98247.53;4944480;28;20107;-78
2022/10/07 02:55:14;;;;;;;5.57;0.52;;;;;;;10.30;65.34;98245.75;4945105;28;20306;-78
2022/10/07 02:57:41;;;;;;;;;;;;;;;10.20;66.11;98248.03;4913202;28;20184;-78
2022/10/07 03:00:07;;;;;;;1.80;0.60;;;;;;;10.46;65.65;98233.97;4912496;28;20118;-78
2022/10/07 03:02:42;;;;;;;3.38;0.60;;;;;;;10.27;65.47;98243.56;4928643;28;20235;-78
2022/10/07 03:05:08;;;;;;;2.35;0.30;;;;;;;10.40;65.84;98242.69;4920152;28;20573;-78
2022/10/07 03:07:34;;;;;;;2.40;0.50;;;;;;;10.39;65.77;98238.47;4926961;28;20256;-78
2022/10/07 03:10:00;;;;;;;0.60;0.38;;;;;;;10.44;66.08;98230.03;4944737;28;20279;-78
2022/10/07 03:12:25;;;;;;;3.28;0.52;;;;;;;10.42;66.51;98224.25;4908859;28;20302;-78
2022/10/07 03:14:51;;;;;;;3.40;1.00;;;;;;;10.48;65.90;98223.34;4928210;28;20177;-78
2022/10/07 03:17:17;;;;;;;3.65;0.70;;;;;;;10.51;65.22;98219.53;4944453;28;20285;-78
2022/10/07 03:19:42;;;;;;;4.53;0.60;;;;;;;10.47;65.72;98221.78;4912311;28;20192;-78
2022/10/07 03:22:08;;;;;;;4.03;0.60;;;;;;;10.41;65.09;98213.00;4944551;28;20120;-78
2022/10/07 03:24:33;;;;;;;3.58;1.20;;;;;;;10.32;65.47;98210.94;4944402;28;20200;-78
2022/10/07 03:26:58;;;;;;;3.13;0.50;;;;;;;10.32;65.33;98210.94;4945627;28;20289;-77
2022/10/07 03:29:25;;;;;;;2.45;0.60;;;;;;;10.37;65.20;98204.06;4928719;28;20712;-77
2022/10/07 03:31:53;;;;;;;2.70;0.50;;;;;;;10.37;64.71;98198.84;4911872;28;20143;-78
2022/10/07 03:34:19;;;;;;;3.72;0.50;;;;;;;10.29;65.60;98202.50;4928338;28;20272;-78
2022/10/07 03:36:44;;;;;;;3.95;0.82;;;;;;;10.28;65.38;98202.69;4945825;28;20218;-78
2022/10/07 03:39:09;;;;;;;3.25;0.47;;;;;;;10.26;64.95;98196.91;4927730;28;20179;-78
2022/10/07 03:41:35;;;;;;;1.98;0.70;;;;;;;10.26;65.37;98191.72;4927567;28;20091;-78
2022/10/07 03:44:01;;;;;;;2.97;0.55;;;;;;;10.23;65.52;98190.34;4945793;28;20297;-78
2022/10/07 03:46:27;;;;;;;4.03;0.80;;;;;;;10.25;64.87;98185.72;4943824;28;20544;-77
2022/10/07 03:48:52;;;;;;;4.35;0.95;;;;;;;10.22;65.04;98185.38;4943573;28;20215;-78
2022/10/07 03:51:17;;;;;;;3.95;0.63;;;;;;;10.21;65.41;98181.97;4927069;28;20198;-78
2022/10/07 03:53:43;;;;;;;5.10;0.70;;;;;;;10.17;64.79;98188.59;4944264;28;20315;-78
2022/10/07 03:56:08;;;;;;;2.97;0.82;;;;;;;10.15;65.25;98185.44;4918964;28;20246;-77
2022/10/07 03:58:33;;;;;;;3.25;0.47;;;;;;;10.20;65.25;98187.41;4907001;28;20341;-77
2022/10/07 04:01:07;;;;;;;1.98;0.70;;;;;;;9.98;65.58;98189.63;4911831;28;20105;-77
2022/10/07 04:03:33;;;;;;;6.72;1.35;;;;;;;10.07;65.37;98193.50;4927927;28;20248;-77
2022/10/07 04:05:59;;;;;;;4.22;0.90;;;;;;;10.08;64.83;98179.50;4944500;28;20363;-78
2022/10/07 04:08:28;;;;;;;2.92;0.70;;;;;;;9.91;65.03;98184.47;4944274;28;20679;-77
2022/10/07 04:10:54;;;;;;;4.30;0.60;;;;;;;9.92;64.42;98189.47;4943396;28;20674;-77
2022/10/07 04:13:19;;;;;;;3.05;0.57;;;;;;;9.85;64.98;98188.72;4944364;28;20340;-77
2022/10/07 04:15:44;;;;;;;2.47;0.68;;;;;;;9.83;64.55;98188.13;4944441;28;20566;-78
2022/10/07 04:18:10;;;;;;;3.55;0.50;;;;;;;9.74;64.52;98186.81;4937660;28;20363;-77
2022/10/07 04:20:38;;;;;;;3.30;0.55;;;;;;;9.65;64.67;98190.72;4927608;28;20184;-77
2022/10/07 04:23:04;;;;;;;4.75;0.50;;;;;;;9.67;65.02;98188.69;4944512;28;20285;-77
2022/10/07 04:25:32;;;;;;;2.63;0.60;;;;;;;9.71;64.87;98193.22;4927757;28;20188;-77
2022/10/07 04:27:58;;;;;;;2.38;0.50;;;;;;;9.69;64.30;98186.66;4943886;28;20196;-76
2022/10/07 04:30:25;;;;;;;2.47;0.63;;;;;;;9.69;64.48;98181.47;4943386;28;20282;-76
2022/10/07 04:32:51;;;;;;;6.30;1.15;;;;;;;9.74;64.32;98181.63;4927202;28;20373;-76
2022/10/07 04:35:18;;;;;;;4.85;1.05;;;;;;;9.67;64.53;98176.47;4908037;28;20251;-76
2022/10/07 04:37:43;;;;;;;4.25;0.98;;;;;;;9.71;64.49;98174.25;4929043;28;20242;-76
2022/10/07 04:40:10;;;;;;;2.92;0.70;;;;;;;9.61;64.92;98168.72;4923176;28;20687;-76
2022/10/07 04:45:20;;;;;;;2.25;0.90;;;;;;;9.64;64.74;98168.31;4957411;28;20243;-76
2022/10/07 04:47:45;;;;;;;2.13;1.08;;;;;;;9.54;64.99;98166.19;4919909;28;20228;-76
2022/10/07 04:50:11;;;;;;;2.55;0.98;;;;;;;9.52;65.30;98166.38;4926986;28;20228;-76
2022/10/07 04:52:41;;;;;;;4.32;1.15;;;;;;;9.47;65.99;98161.03;4930261;28;20654;-76
2022/10/07 04:55:08;;;;;;;2.35;0.60;;;;;;;9.56;65.75;98156.34;4914313;28;20179;-76
2022/10/07 04:57:33;;;;;;;1.73;0.50;;;;;;;9.57;65.33;98158.75;4911007;28;20313;-76
2022/10/07 05:00:00;;;;;;;3.78;0.80;;;;;;;9.59;65.92;98155.16;4929390;28;20611;-76
2022/10/07 05:02:26;;;;;;;4.00;0.68;;;;;;;9.64;66.04;98152.69;4945657;28;20187;-76
2022/10/07 05:04:51;;;;;;;4.90;0.47;;;;;;;9.68;66.12;98151.25;4929493;28;20176;-76
2022/10/07 05:07:17;;;;;;;7.25;1.42;;;;;;;9.69;65.96;98155.47;4945431;28;20110;-76
2022/10/07 05:09:42;;;;;;;2.35;0.52;;;;;;;9.71;66.23;98153.44;4929136;28;20381;-76
2022/10/07 05:12:08;;;;;;;1.58;0.50;;;;;;;9.71;65.76;98145.63;4912490;28;20674;-76
2022/10/07 05:14:33;;;;;;;1.88;0.85;;;;;;;9.71;65.85;98148.22;4929068;28;20586;-76
2022/10/07 05:16:59;;;;;;;1.88;0.47;;;;;;;9.68;65.83;98138.25;4945408;28;20238;-76
2022/10/07 05:19:24;;;;;;;2.85;0.60;;;;;;;9.67;65.91;98141.88;4912561;28;20286;-76
2022/10/07 05:21:50;;;;;;;3.00;0.70;;;;;;;9.68;66.08;98138.25;4928456;28;20196;-76
2022/10/07 05:24:15;;;;;;;3.10;0.60;;;;;;;9.72;65.62;98144.63;4927806;28;20246;-76
2022/10/07 05:26:41;;;;;;;3.60;0.50;;;;;;;9.72;65.60;98136.84;4912635;28;20204;-76
2022/10/07 05:29:06;;;;;;;4.30;0.70;;;;;;;9.80;65.48;98133.97;4946897;28;20293;-76
2022/10/07 05:31:32;;;;;;;2.85;0.85;;;;;;;9.79;65.78;98134.97;4944620;28;20672;-76
2022/10/07 05:33:58;;;;;;;2.22;0.50;;;;;;;9.77;65.32;98133.56;4928768;28;20272;-76
2022/10/07 05:36:23;;;;;;;3.75;0.50;;;;;;;9.78;65.36;98138.56;4944931;28;20203;-76
2022/10/07 05:38:49;;;;;;;2.78;0.60;;;;;;;9.74;65.76;98137.41;4917365;28;20221;-76
2022/10/07 05:41:14;;;;;;;4.00;0.50;;;;;;;9.77;65.93;98131.78;4938697;28;20302;-76
2022/10/07 05:43:41;;;;;;;3.30;0.80;;;;;;;9.76;65.43;98124.97;4944971;28;20191;-79
2022/10/07 05:46:10;;;;;;;2.63;0.50;;;;;;;9.68;65.56;98133.06;4929137;28;20361;-79
2022/10/07 05:48:36;;;;;;;5.45;0.60;;;;;;;9.71;65.39;98128.22;4945176;28;20203;-78
2022/10/07 05:51:01;;;;;;;3.50;0.40;;;;;;;9.78;65.55;98125.56;4945546;28;20586;-78
2022/10/07 05:53:27;;;;;;;3.40;0.75;;;;;;;9.74;65.36;98121.81;4946210;28;20191;-78
2022/10/07 05:55:53;;;;;;;3.03;0.47;;;;;;;9.74;66.13;98121.81;4917673;28;20213;-78
2022/10/07 05:58:19;;;;;;;2.28;0.75;;;;;;;9.68;65.34;98125.25;4945146;28;20228;-79
2022/10/07 06:00:53;;;;;;;1.65;0.38;;;;;;;9.63;65.54;98123.31;4928648;28;20269;-79
2022/10/07 06:03:19;;;;;;;4.10;0.95;;;;;;;9.70;65.73;98124.03;4929478;28;20133;-76
2022/10/07 06:05:45;;;;;;;2.22;0.77;;;;;;;9.72;65.31;98108.22;4945643;28;20626;-76
2022/10/07 06:08:11;;;;;;;3.63;1.15;;;;;;;9.75;65.10;98113.00;4909967;28;20169;-76
2022/10/07 06:13:21;;;;;;;9.07;3.55;;;;;;;9.75;65.15;98113.00;4961556;28;20215;-76
2022/10/07 06:15:46;;;;;;;6.80;4.07;;;;;;;9.69;65.82;98106.06;4945162;28;20692;-76
2022/10/07 06:18:11;;;;;;;10.82;4.75;;;;;;;9.73;65.36;98109.81;4933209;28;20097;-76
2022/10/07 06:20:37;;;;;;;9.07;3.28;;;;;;;9.74;65.35;98111.41;4927808;28;20275;-76
2022/10/07 06:23:02;;;;;;;7.13;2.30;;;;;;;9.82;66.49;98113.72;4945264;28;20196;-76
2022/10/07 06:25:27;;;;;;;4.80;1.80;;;;;;;9.85;65.83;98112.47;4944834;28;20164;-76
2022/10/07 06:27:56;;;;;;;5.47;1.73;;;;;;;9.83;66.02;98114.50;4944852;28;20318;-76
2022/10/07 06:30:22;;;;;;;6.03;2.17;;;;;;;9.99;66.08;98115.75;4924920;28;20199;-76
2022/10/07 06:32:48;;;;;;;8.38;2.72;;;;;;;10.02;65.31;98112.72;4944098;28;20318;-76
2022/10/07 06:35:13;;;;;;;4.03;1.73;;;;;;;10.09;65.63;98123.84;4944775;28;20203;-76
2022/10/07 06:37:38;;;;;;;4.30;1.85;;;;;;;10.16;65.34;98114.16;4944727;28;20187;-76
2022/10/07 06:40:04;;;;;;;6.10;2.58;;;;;;;10.21;65.60;98119.50;4927613;28;20679;-76
2022/10/07 06:42:30;;;;;;;6.75;2.20;;;;;;;10.18;65.15;98116.53;4928289;28;20270;-76
2022/10/07 06:44:55;;;;;;;7.95;3.17;;;;;;;10.12;65.99;98120.81;4944367;28;20278;-77
2022/10/07 06:47:21;;;;;;;6.80;2.80;;;;;;;10.15;65.86;98115.16;4944106;28;20145;-76
2022/10/07 06:49:46;;;;;;;6.15;2.13;;;;;;;10.25;65.62;98114.66;4944016;28;20244;-76
2022/10/07 06:52:12;;;;;;;3.65;1.27;;;;;;;10.37;65.86;98115.53;4928347;28;20284;-79
2022/10/07 06:54:37;;;;;;;5.88;1.77;;;;;;;10.42;65.56;98109.69;4912024;28;20198;-79
2022/10/07 06:57:02;;;;;;;4.45;1.63;;;;;;;10.53;65.36;98114.13;4928197;28;20191;-79
2022/10/07 06:59:28;;;;;;;3.72;1.27;;;;;;;10.66;64.58;98113.97;4944897;28;20234;-79
2022/10/07 07:01:53;;;;;;;2.13;1.35;;;;;;;10.72;65.11;98117.47;4932177;28;20190;-79
2022/10/07 07:04:18;;;;;;;4.63;2.28;;;;;;;10.83;65.34;98115.91;4941608;28;20633;-78
2022/10/07 07:06:44;;;;;;;5.13;2.15;;;;;;;11.00;64.39;98116.91;4950075;28;20287;-78
2022/10/07 07:09:09;;;;;;;3.63;1.52;;;;;;;11.14;63.76;98116.66;4925551;28;20232;-78
2022/10/07 07:11:34;;;;;;;4.10;1.33;;;;;;;11.21;63.66;98112.16;4945117;28;20187;-78
2022/10/07 07:14:01;;;;;;;3.95;1.60;;;;;;;11.26;63.42;98117.50;4944140;28;20199;-79
2022/10/07 07:16:27;;;;;;;3.65;2.10;;;;;;;11.31;63.68;98120.22;4928642;28;20650;-79
2022/10/07 07:19:01;;;;;;;7.22;3.10;;;;;;;11.33;62.81;98114.78;4927442;28;20631;-78
2022/10/07 07:21:29;;;;;;;3.90;2.38;;;;;;;11.49;62.74;98116.72;4944083;28;20196;-78
2022/10/07 07:23:56;;;;;;;3.50;1.25;;;;;;;11.52;62.83;98112.88;4912368;28;20215;-78
2022/10/07 07:26:22;;;;;;;4.05;1.40;;;;;;;11.51;62.57;98109.44;4944056;28;20642;-79
2022/10/07 07:28:56;;;;;;;3.30;1.40;;;;;;;11.44;62.95;98108.78;4912225;28;20648;-79
2022/10/07 07:31:21;;;;;;;2.50;0.90;;;;;;;11.57;62.63;98111.16;4944157;28;20204;-79
2022/10/07 07:33:51;;;;;;;1.95;0.65;;;;;;;11.69;62.79;98108.56;4944631;28;20384;-79
2022/10/07 07:36:18;;;;;;;2.53;1.08;;;;;;;11.91;62.52;98113.19;4944551;28;20650;-79
2022/10/07 07:38:55;;;;;;;3.05;0.40;;;;;;;12.10;62.02;98112.03;4944805;28;20169;-78
2022/10/07 07:41:23;;;;;;;4.90;1.08;;;;;;;12.43;61.67;98112.41;4944355;28;20199;-79
2022/10/07 07:43:54;;;;;;;6.75;2.13;;;;;;;12.63;61.70;98114.56;4944522;28;20251;-79
2022/10/07 07:46:24;;;;;;;6.95;3.50;;;;;;;12.78;62.49;98112.22;4910495;28;20401;-79
2022/10/07 07:48:50;;;;;;;5.05;3.03;;;;;;;13.08;61.74;98111.19;4944195;28;20177;-79
2022/10/07 07:51:16;;;;;;;7.13;3.10;;;;;;;13.25;61.81;98106.72;4940488;28;20288;-78
2022/10/07 07:53:42;;;;;;;8.77;2.65;;;;;;;13.32;61.69;98105.81;4928078;28;20753;-79
2022/10/07 07:56:08;;;;;;;4.82;2.50;;;;;;;13.50;60.84;98105.53;4944623;28;20191;-78
2022/10/07 07:58:34;;;;;;;4.88;3.17;;;;;;;13.70;60.68;98104.25;4927814;28;20223;-79
2022/10/07 08:01:02;;;;;;;6.18;2.80;;;;;;;13.82;60.72;98104.94;4944019;28;20280;-79
2022/10/07 08:03:28;;;;;;;4.63;2.03;;;;;;;13.87;60.22;98089.31;4944100;28;20191;-79
2022/10/07 08:05:54;;;;;;;6.03;2.30;;;;;;;14.10;60.18;98103.97;4911957;28;20279;-78
2022/10/07 08:08:19;;;;;;;4.13;1.70;;;;;;;14.19;59.78;98099.13;4944108;28;20264;-79
2022/10/07 08:10:45;;;;;;;4.50;1.92;;;;;;;14.29;59.78;98098.41;4927698;28;20188;-79
2022/10/07 08:13:10;;;;;;;5.47;1.90;;;;;;;14.30;60.01;98097.41;4947821;28;20220;-79
2022/10/07 08:15:35;;;;;;;5.05;2.83;;;;;;;14.35;60.54;98100.06;4949673;28;20657;-79
2022/10/07 08:18:03;;;;;;;7.03;3.33;;;;;;;14.44;60.22;98101.22;4931753;28;20191;-79
2022/10/07 08:20:29;;;;;;;7.22;3.63;;;;;;;14.45;60.43;98097.56;4949058;28;20191;-79
2022/10/07 08:22:54;;;;;;;9.88;4.03;;;;;;;14.63;59.39;98099.06;4947851;28;20265;-79
2022/10/07 08:25:21;;;;;;;5.85;3.28;;;;;;;14.65;59.76;98097.00;4912314;28;20169;-79
2022/10/07 08:27:47;;;;;;;4.45;2.63;;;;;;;14.75;59.76;98094.50;4961205;28;20208;-79
2022/10/07 08:30:12;;;;;;;8.70;2.83;;;;;;;14.84;59.15;98092.19;4947840;28;20223;-78
2022/10/07 08:32:38;;;;;;;5.03;1.95;;;;;;;14.93;59.57;98098.56;4930795;28;20637;-79
2022/10/07 08:35:03;;;;;;;3.75;1.75;;;;;;;15.01;59.04;98089.47;4931388;28;20211;-78
2022/10/07 08:37:29;;;;;;;5.05;1.75;;;;;;;15.01;59.31;98084.22;4947500;28;20397;-79
2022/10/07 08:39:54;;;;;;;3.10;0.95;;;;;;;15.07;58.94;98082.41;4946861;28;20190;-78
2022/10/07 08:42:41;;;;;;;3.35;1.25;;;;;;;15.03;58.90;98086.56;4949104;28;20191;-78
2022/10/07 08:45:13;;;;;;;4.10;1.00;;;;;;;15.04;59.15;98078.44;4947244;28;20693;-78
2022/10/07 08:47:42;;;;;;;5.03;1.40;;;;;;;15.16;59.24;98076.47;4947160;28;20314;-78
2022/10/07 08:50:18;;;;;;;3.28;1.25;;;;;;;15.14;58.82;98078.53;4946884;28;20641;-78
2022/10/07 08:52:49;;;;;;;3.72;1.00;;;;;;;15.36;58.37;98078.41;4912957;28;20245;-78
2022/10/07 08:55:21;;;;;;;10.93;1.20;;;;;;;15.26;58.99;98074.94;4947323;28;20203;-78
2022/10/07 08:57:49;;;;;;;3.58;0.80;;;;;;;15.26;59.20;98072.31;4914731;28;20445;-78
2022/10/07 09:00:18;;;;;;;5.63;1.33;;;;;;;15.25;59.48;98070.72;4930684;28;20427;-78
2022/10/07 09:03:17;;;;;;;5.85;0.82;;;;;;;15.23;58.74;98070.19;4913912;28;20577;-78
2022/10/07 09:05:48;;;;;;;5.65;1.25;;;;;;;15.38;58.26;98066.88;4919928;28;20597;-78
2022/10/07 09:08:34;;;;;;;4.10;1.10;;;;;;;15.14;59.08;98062.78;4914908;28;20169;-78
2022/10/07 09:11:14;;;;;;;5.50;1.20;;;;;;;15.32;59.05;98068.69;4914034;28;20159;-78
2022/10/07 09:13:42;;;;;;;3.83;0.90;;;;;;;15.45;58.23;98070.84;4946944;28;20278;-78
2022/10/07 09:16:23;;;;;;;3.63;1.15;;;;;;;15.42;59.13;98063.50;4946793;28;20642;-78
2022/10/07 09:18:52;;;;;;;4.55;0.98;;;;;;;15.69;58.72;98059.97;4930592;28;20150;-78
2022/10/07 09:21:25;;;;;;;3.65;0.90;;;;;;;15.59;58.53;98073.81;4913759;28;20185;-78
2022/10/07 09:23:55;;;;;;;3.53;0.80;;;;;;;15.84;57.61;98065.31;4929133;28;20165;-78
2022/10/07 09:26:20;;;;;;;3.55;0.90;;;;;;;16.03;57.17;98062.25;4946836;28;20181;-78
2022/10/07 09:28:45;;;;;;;2.80;1.17;;;;;;;16.26;55.84;98055.72;4946830;28;20305;-78
2022/10/07 09:31:13;;;;;;;6.35;1.52;;;;;;;16.28;54.83;98058.91;4947984;28;20237;-78
2022/10/07 09:33:42;;;;;;;3.70;1.55;;;;;;;16.51;54.30;98054.22;4946513;28;20199;-78
2022/10/07 09:36:09;;;;;;;3.65;1.10;;;;;;;16.62;53.83;98053.97;4946684;28;20672;-78
2022/10/07 09:38:55;;;;;;;2.25;0.70;;;;;;;16.65;54.90;98050.00;4910823;28;20199;-78
2022/10/07 09:41:34;;;;;;;3.92;1.05;;;;;;;16.89;53.84;98047.69;4929526;28;20294;-79
2022/10/07 09:44:15;;;;;;;5.15;0.70;;;;;;;16.97;54.67;98044.53;4946510;28;20289;-78
2022/10/07 09:46:51;;;;;;;5.45;1.45;;;;;;;17.11;54.53;98039.50;4929110;28;20330;-79
2022/10/07 09:49:29;;;;;;;6.82;1.33;;;;;;;17.07;54.64;98037.66;4929809;28;20204;-78
2022/10/07 09:52:10;;;;;;;4.10;0.90;;;;;;;17.29;54.62;98040.81;4929959;28;20286;-79
2022/10/07 09:54:35;;;;;;;4.50;1.05;;;;;;;17.43;55.16;98041.03;4929620;28;20204;-77
2022/10/07 09:57:03;;;;;;;4.38;1.20;;;;;;;17.79;53.89;98039.06;4913300;28;20266;-77
2022/10/07 09:59:30;;;;;;;5.00;1.10;;;;;;;17.75;55.83;98040.69;4929554;28;20194;-77
2022/10/07 10:01:58;;;;;;;2.83;0.70;;;;;;;18.01;54.96;98029.25;4913569;28;20206;-77
2022/10/07 10:04:28;;;;;;;3.60;0.90;;;;;;;18.10;53.08;98031.06;4946098;28;20199;-77
2022/10/07 10:06:57;;;;;;;2.05;0.63;;;;;;;18.37;51.85;98021.13;4913694;28;20285;-77
2022/10/07 10:09:24;;;;;;;4.20;0.82;;;;;;;18.55;51.26;98019.72;4945243;28;20196;-77
2022/10/07 10:12:11;;;;;;;3.28;0.60;;;;;;;18.45;52.41;98020.56;4945760;28;20255;-77
2022/10/07 10:14:43;;;;;;;4.20;1.25;;;;;;;18.82;50.15;98016.59;4913388;28;20282;-79
2022/10/07 10:17:26;;;;;;;3.60;0.80;;;;;;;18.88;49.32;98016.31;4945866;28;20246;-79
2022/10/07 10:19:51;;;;;;;3.15;1.23;;;;;;;19.16;48.91;98015.75;4945275;28;20726;-77
2022/10/07 10:22:28;;;;;;;3.63;0.70;;;;;;;19.13;48.53;98009.19;4929436;28;20336;-77
2022/10/07 10:27:55;;;;;;;2.92;0.77;;;;;;;19.31;49.30;97998.97;4945491;28;20223;-77
2022/10/07 10:30:21;;;;;;;5.68;0.88;;;;;;;19.63;48.39;97999.13;4945343;28;20272;-77
2022/10/07 10:33:24;;;;;;;2.47;0.80;;;;;;;19.67;48.88;97990.66;4929283;28;20262;-77
2022/10/07 10:36:26;;;;;;;3.05;0.98;;;;;;;19.51;48.58;97990.84;4946637;28;20219;-77
2022/10/07 10:39:06;;;;;;;2.88;1.35;;;;;;;19.65;48.12;97986.44;4868154;28;20202;-77
2022/10/07 10:41:38;;;;;;;2.03;0.90;;;;;;;19.86;48.17;97978.28;4844043;28;20117;-77
2022/10/07 10:44:31;;;;;;;2.55;0.77;;;;;;;19.66;48.42;97976.66;4909961;28;20368;-77
2022/10/07 10:47:11;;;;;;;3.95;1.05;;;;;;;19.70;49.92;97966.31;4903404;28;20126;-78
2022/10/07 10:49:47;;;;;;;2.00;1.13;;;;;;;19.83;49.11;97973.56;4887485;28;20204;-77
2022/10/07 10:52:19;;;;;;;3.78;0.95;;;;;;;20.01;50.53;97967.50;4856880;28;20290;-77
2022/10/07 10:55:03;;;;;;;4.53;1.20;;;;;;;20.24;48.75;97969.53;4904109;28;20213;-77
2022/10/07 10:57:40;;;;;;;1.50;0.95;;;;;;;20.51;47.48;97966.22;4888165;28;20109;-77
2022/10/07 11:00:14;;;;;;;3.92;0.80;;;;;;;20.58;47.05;97966.66;4887792;28;20116;-77
2022/10/07 11:02:42;;;;;;;3.45;1.70;;;;;;;20.83;46.80;97969.97;4872654;28;20658;-77
2022/10/07 11:05:16;;;;;;;4.15;1.50;;;;;;;20.80;47.06;97963.38;4888666;28;20194;-77
2022/10/07 11:07:47;;;;;;;3.17;1.20;;;;;;;20.87;46.96;97955.06;4888407;28;20209;-77
2022/10/07 11:10:24;;;;;;;3.40;0.80;;;;;;;20.98;47.09;97953.03;4887545;28;20284;-77
2022/10/07 11:12:53;;;;;;;4.70;1.40;;;;;;;21.21;46.64;97948.59;4907168;28;20269;-77
2022/10/07 11:15:33;;;;;;;4.78;1.23;;;;;;;21.50;47.06;97954.41;4945687;28;20644;-77
2022/10/07 11:18:03;;;;;;;2.92;0.77;;;;;;;21.63;45.60;97946.75;4944931;28;20651;-77
2022/10/07 11:20:42;;;;;;;5.10;1.10;;;;;;;21.87;44.84;97930.59;4928119;28;20409;-77
2022/10/07 11:23:40;;;;;;;2.45;0.80;;;;;;;22.26;44.20;97919.31;4929172;28;20180;-77
2022/10/07 11:26:29;;;;;;;4.32;1.33;;;;;;;22.55;43.41;97919.97;4946684;28;20366;-77
2022/10/07 11:28:57;;;;;;;2.60;1.25;;;;;;;23.26;42.85;97922.63;4944393;28;20215;-77
2022/10/07 11:31:31;;;;;;;4.50;1.40;;;;;;;22.83;43.42;97925.91;4915099;28;20459;-77
2022/10/07 11:33:59;;;;;;;4.73;1.10;;;;;;;23.41;42.93;97924.09;4928901;28;20435;-78
2022/10/07 11:36:35;;;;;;;2.88;1.35;;;;;;;23.50;42.08;97913.47;4947197;28;20169;-78
2022/10/07 11:39:00;;;;;;;2.85;1.60;;;;;;;24.16;41.68;97907.22;4946240;28;20394;-78
2022/10/07 11:41:32;;;;;;;3.83;1.30;;;;;;;24.19;40.92;97909.25;4945945;28;20428;-77
2022/10/07 11:44:02;;;;;;;5.47;1.20;;;;;;;24.79;39.04;97908.31;4944740;28;20621;-78
2022/10/07 11:46:32;;;;;;;2.17;1.25;;;;;;;24.97;39.91;97905.63;4945568;28;20709;-77
2022/10/07 11:49:18;;;;;;;4.15;1.13;;;;;;;24.94;40.56;97898.25;4932144;28;20719;-78
2022/10/07 11:51:56;;;;;;;3.70;1.60;;;;;;;25.13;40.25;97895.94;4931956;28;20201;-78
2022/10/07 11:54:26;;;;;;;1.67;1.30;;;;;;;25.65;38.11;97891.41;4932649;28;20620;-77
2022/10/07 11:56:54;;;;;;;1.70;1.10;;;;;;;26.29;36.83;97877.66;4932612;28;20199;-78